Terminal Aerodrome Forecast
Issued by NWS Cheyenne, WY

Home | Current Version | Previous Version | Text Only | Print | Product List | Glossary On
Versions: 1 2 3 4 5 6 7 8 9 10 11 12 13 14 15 16 17 18 19 20 21 22 23 24 25 26 27 28 29 30
000
FTUS45 KCYS 201129
TAFCYS
TAF
KCYS 201129Z 2012/2112 27010KT P6SM SCT150
     FM201700 24015G25KT P6SM SCT250
     FM210000 28012KT P6SM SCT100
     FM210400 31028G38KT P6SM BKN100=

USA.gov is the U.S. government's official web portal to all federal, state and local government web resources and services.